sensor_id;sensor_type;location;lat;lon;timestamp;P1;durP1;ratioP1;P2;durP2;ratioP2
4500;SDS011;2263;54.654;9.410;2023-04-15T00:02:13;13.47;;;8.70;;
4500;SDS011;2263;54.654;9.410;2023-04-15T00:04:45;10.70;;;8.33;;
4500;SDS011;2263;54.654;9.410;2023-04-15T00:07:13;9.97;;;8.97;;
4500;SDS011;2263;54.654;9.410;2023-04-15T00:09:41;11.57;;;8.60;;
4500;SDS011;2263;54.654;9.410;2023-04-15T00:12:10;14.20;;;10.23;;
4500;SDS011;2263;54.654;9.410;2023-04-15T00:14:38;12.27;;;8.60;;
4500;SDS011;2263;54.654;9.410;2023-04-15T00:17:06;9.63;;;8.60;;
4500;SDS011;2263;54.654;9.410;2023-04-15T00:19:34;10.00;;;8.07;;
4500;SDS011;2263;54.654;9.410;2023-04-15T00:22:02;11.30;;;8.83;;
4500;SDS011;2263;54.654;9.410;2023-04-15T00:24:30;14.17;;;9.20;;
4500;SDS011;2263;54.654;9.410;2023-04-15T00:26:58;14.33;;;9.97;;
4500;SDS011;2263;54.654;9.410;2023-04-15T00:29:26;12.97;;;10.37;;
4500;SDS011;2263;54.654;9.410;2023-04-15T00:31:54;12.40;;;10.27;;
4500;SDS011;2263;54.654;9.410;2023-04-15T00:34:22;15.17;;;10.50;;
4500;SDS011;2263;54.654;9.410;2023-04-15T00:36:50;12.17;;;9.97;;
4500;SDS011;2263;54.654;9.410;2023-04-15T00:39:18;14.23;;;10.83;;
4500;SDS011;2263;54.654;9.410;2023-04-15T00:41:46;14.30;;;9.57;;
4500;SDS011;2263;54.654;9.410;2023-04-15T00:44:14;14.57;;;10.57;;
4500;SDS011;2263;54.654;9.410;2023-04-15T00:46:41;12.60;;;10.07;;
4500;SDS011;2263;54.654;9.410;2023-04-15T00:49:11;10.83;;;9.47;;
4500;SDS011;2263;54.654;9.410;2023-04-15T00:51:39;10.20;;;9.20;;
4500;SDS011;2263;54.654;9.410;2023-04-15T00:54:06;13.60;;;10.60;;
4500;SDS011;2263;54.654;9.410;2023-04-15T00:56:34;13.57;;;10.20;;
4500;SDS011;2263;54.654;9.410;2023-04-15T00:59:04;15.80;;;11.00;;
4500;SDS011;2263;54.654;9.410;2023-04-15T01:01:33;11.07;;;9.17;;
4500;SDS011;2263;54.654;9.410;2023-04-15T01:04:02;15.43;;;9.90;;
4500;SDS011;2263;54.654;9.410;2023-04-15T01:06:30;12.63;;;9.10;;
4500;SDS011;2263;54.654;9.410;2023-04-15T01:08:58;13.53;;;9.80;;
4500;SDS011;2263;54.654;9.410;2023-04-15T01:11:29;12.60;;;9.87;;
4500;SDS011;2263;54.654;9.410;2023-04-15T01:14:00;11.60;;;10.40;;
4500;SDS011;2263;54.654;9.410;2023-04-15T01:16:28;10.47;;;8.10;;
4500;SDS011;2263;54.654;9.410;2023-04-15T01:18:56;11.83;;;9.07;;
4500;SDS011;2263;54.654;9.410;2023-04-15T01:21:24;10.60;;;9.10;;
4500;SDS011;2263;54.654;9.410;2023-04-15T01:23:52;10.10;;;8.70;;
4500;SDS011;2263;54.654;9.410;2023-04-15T01:26:22;9.40;;;8.23;;
4500;SDS011;2263;54.654;9.410;2023-04-15T01:28:50;9.17;;;8.20;;
4500;SDS011;2263;54.654;9.410;2023-04-15T01:31:18;8.53;;;7.57;;
4500;SDS011;2263;54.654;9.410;2023-04-15T01:33:45;10.00;;;7.90;;
4500;SDS011;2263;54.654;9.410;2023-04-15T01:36:13;8.27;;;7.47;;
4500;SDS011;2263;54.654;9.410;2023-04-15T01:38:40;10.60;;;7.27;;
4500;SDS011;2263;54.654;9.410;2023-04-15T01:41:08;10.70;;;7.00;;
4500;SDS011;2263;54.654;9.410;2023-04-15T01:43:36;9.63;;;8.20;;
4500;SDS011;2263;54.654;9.410;2023-04-15T01:46:03;8.33;;;6.80;;
4500;SDS011;2263;54.654;9.410;2023-04-15T01:48:31;9.70;;;7.77;;
4500;SDS011;2263;54.654;9.410;2023-04-15T01:50:59;9.87;;;7.70;;
4500;SDS011;2263;54.654;9.410;2023-04-15T01:53:27;10.60;;;8.60;;
4500;SDS011;2263;54.654;9.410;2023-04-15T01:55:55;8.70;;;6.40;;
4500;SDS011;2263;54.654;9.410;2023-04-15T01:58:22;8.40;;;6.90;;
4500;SDS011;2263;54.654;9.410;2023-04-15T02:00:50;10.70;;;8.30;;
4500;SDS011;2263;54.654;9.410;2023-04-15T02:03:18;7.57;;;6.87;;
4500;SDS011;2263;54.654;9.410;2023-04-15T02:05:46;7.80;;;7.00;;
4500;SDS011;2263;54.654;9.410;2023-04-15T02:08:13;7.60;;;6.57;;
4500;SDS011;2263;54.654;9.410;2023-04-15T02:10:41;8.33;;;7.50;;
4500;SDS011;2263;54.654;9.410;2023-04-15T02:13:08;9.10;;;7.37;;
4500;SDS011;2263;54.654;9.410;2023-04-15T02:15:36;8.90;;;8.00;;
4500;SDS011;2263;54.654;9.410;2023-04-15T02:18:04;9.93;;;7.87;;
4500;SDS011;2263;54.654;9.410;2023-04-15T02:23:42;8.27;;;7.37;;
4500;SDS011;2263;54.654;9.410;2023-04-15T02:26:10;9.70;;;7.53;;
4500;SDS011;2263;54.654;9.410;2023-04-15T02:28:37;8.23;;;7.43;;
4500;SDS011;2263;54.654;9.410;2023-04-15T02:31:05;9.73;;;7.20;;
4500;SDS011;2263;54.654;9.410;2023-04-15T02:33:33;11.73;;;7.70;;
4500;SDS011;2263;54.654;9.410;2023-04-15T02:36:02;8.13;;;7.50;;
4500;SDS011;2263;54.654;9.410;2023-04-15T02:38:30;7.57;;;6.97;;
4500;SDS011;2263;54.654;9.410;2023-04-15T02:40:58;8.93;;;8.03;;
4500;SDS011;2263;54.654;9.410;2023-04-15T02:43:25;8.90;;;6.47;;
4500;SDS011;2263;54.654;9.410;2023-04-15T02:45:53;9.37;;;8.40;;
4500;SDS011;2263;54.654;9.410;2023-04-15T02:48:20;8.67;;;7.53;;
4500;SDS011;2263;54.654;9.410;2023-04-15T02:50:48;10.50;;;7.93;;
4500;SDS011;2263;54.654;9.410;2023-04-15T02:53:16;7.73;;;6.93;;
4500;SDS011;2263;54.654;9.410;2023-04-15T02:55:43;7.70;;;6.90;;
4500;SDS011;2263;54.654;9.410;2023-04-15T02:58:11;16.27;;;6.90;;
4500;SDS011;2263;54.654;9.410;2023-04-15T03:00:38;7.20;;;6.37;;
4500;SDS011;2263;54.654;9.410;2023-04-15T03:03:06;9.00;;;7.73;;
4500;SDS011;2263;54.654;9.410;2023-04-15T03:05:35;7.70;;;7.07;;
4500;SDS011;2263;54.654;9.410;2023-04-15T03:08:05;7.63;;;6.93;;
4500;SDS011;2263;54.654;9.410;2023-04-15T03:10:33;7.97;;;7.33;;
4500;SDS011;2263;54.654;9.410;2023-04-15T03:13:01;9.60;;;7.63;;
4500;SDS011;2263;54.654;9.410;2023-04-15T03:15:28;7.77;;;7.07;;
4500;SDS011;2263;54.654;9.410;2023-04-15T03:17:56;9.40;;;8.40;;
4500;SDS011;2263;54.654;9.410;2023-04-15T03:20:24;10.80;;;9.10;;
4500;SDS011;2263;54.654;9.410;2023-04-15T03:22:51;10.80;;;8.30;;
4500;SDS011;2263;54.654;9.410;2023-04-15T03:25:19;9.20;;;7.70;;
4500;SDS011;2263;54.654;9.410;2023-04-15T03:27:47;8.97;;;7.93;;
4500;SDS011;2263;54.654;9.410;2023-04-15T03:30:14;9.00;;;7.70;;
4500;SDS011;2263;54.654;9.410;2023-04-15T03:32:42;33.60;;;20.57;;
4500;SDS011;2263;54.654;9.410;2023-04-15T03:35:10;39.73;;;23.00;;
4500;SDS011;2263;54.654;9.410;2023-04-15T03:37:38;68.87;;;39.43;;
4500;SDS011;2263;54.654;9.410;2023-04-15T03:40:05;42.70;;;26.17;;
4500;SDS011;2263;54.654;9.410;2023-04-15T03:42:34;35.80;;;21.23;;
4500;SDS011;2263;54.654;9.410;2023-04-15T03:45:02;27.60;;;17.40;;
4500;SDS011;2263;54.654;9.410;2023-04-15T03:47:29;22.60;;;16.13;;
4500;SDS011;2263;54.654;9.410;2023-04-15T03:49:57;17.23;;;13.10;;
4500;SDS011;2263;54.654;9.410;2023-04-15T03:52:25;14.67;;;11.53;;
4500;SDS011;2263;54.654;9.410;2023-04-15T03:54:52;16.60;;;12.73;;
4500;SDS011;2263;54.654;9.410;2023-04-15T03:57:20;13.70;;;10.67;;
4500;SDS011;2263;54.654;9.410;2023-04-15T03:59:47;11.60;;;10.40;;
4500;SDS011;2263;54.654;9.410;2023-04-15T04:02:15;12.33;;;9.67;;
4500;SDS011;2263;54.654;9.410;2023-04-15T04:04:43;10.13;;;8.73;;
4500;SDS011;2263;54.654;9.410;2023-04-15T04:07:19;10.37;;;9.20;;
4500;SDS011;2263;54.654;9.410;2023-04-15T04:09:49;10.40;;;8.03;;
4500;SDS011;2263;54.654;9.410;2023-04-15T04:12:17;9.00;;;8.10;;
4500;SDS011;2263;54.654;9.410;2023-04-15T04:14:44;11.23;;;9.00;;
4500;SDS011;2263;54.654;9.410;2023-04-15T04:17:12;8.90;;;8.00;;
4500;SDS011;2263;54.654;9.410;2023-04-15T04:19:40;8.20;;;7.50;;
4500;SDS011;2263;54.654;9.410;2023-04-15T04:22:07;9.43;;;8.20;;
4500;SDS011;2263;54.654;9.410;2023-04-15T04:24:35;8.03;;;7.23;;
4500;SDS011;2263;54.654;9.410;2023-04-15T04:27:02;7.87;;;7.00;;
4500;SDS011;2263;54.654;9.410;2023-04-15T04:29:30;7.50;;;6.43;;
4500;SDS011;2263;54.654;9.410;2023-04-15T04:31:57;7.33;;;6.73;;
4500;SDS011;2263;54.654;9.410;2023-04-15T04:34:25;8.20;;;7.50;;
4500;SDS011;2263;54.654;9.410;2023-04-15T04:36:52;7.73;;;7.00;;
4500;SDS011;2263;54.654;9.410;2023-04-15T04:39:20;6.90;;;6.40;;
4500;SDS011;2263;54.654;9.410;2023-04-15T04:41:48;6.30;;;5.80;;
4500;SDS011;2263;54.654;9.410;2023-04-15T04:44:17;6.97;;;6.37;;
4500;SDS011;2263;54.654;9.410;2023-04-15T04:46:45;8.57;;;6.43;;
4500;SDS011;2263;54.654;9.410;2023-04-15T04:49:12;7.10;;;6.50;;
4500;SDS011;2263;54.654;9.410;2023-04-15T04:51:40;7.00;;;6.37;;
4500;SDS011;2263;54.654;9.410;2023-04-15T04:54:08;7.40;;;6.80;;
4500;SDS011;2263;54.654;9.410;2023-04-15T04:56:35;6.30;;;5.70;;
4500;SDS011;2263;54.654;9.410;2023-04-15T04:59:05;6.70;;;6.00;;
4500;SDS011;2263;54.654;9.410;2023-04-15T05:01:33;9.33;;;6.97;;
4500;SDS011;2263;54.654;9.410;2023-04-15T05:04:01;8.00;;;7.30;;
4500;SDS011;2263;54.654;9.410;2023-04-15T05:06:31;6.93;;;6.07;;
4500;SDS011;2263;54.654;9.410;2023-04-15T05:08:59;7.00;;;6.23;;
4500;SDS011;2263;54.654;9.410;2023-04-15T05:11:27;6.50;;;5.90;;
4500;SDS011;2263;54.654;9.410;2023-04-15T05:13:55;7.70;;;6.97;;
4500;SDS011;2263;54.654;9.410;2023-04-15T05:16:23;7.23;;;6.57;;
4500;SDS011;2263;54.654;9.410;2023-04-15T05:18:51;6.37;;;5.87;;
4500;SDS011;2263;54.654;9.410;2023-04-15T05:21:19;8.30;;;6.97;;
4500;SDS011;2263;54.654;9.410;2023-04-15T05:23:47;13.20;;;7.83;;
4500;SDS011;2263;54.654;9.410;2023-04-15T05:26:15;8.07;;;7.27;;
4500;SDS011;2263;54.654;9.410;2023-04-15T05:28:43;8.43;;;6.00;;
4500;SDS011;2263;54.654;9.410;2023-04-15T05:31:10;7.80;;;7.03;;
4500;SDS011;2263;54.654;9.410;2023-04-15T05:33:38;7.53;;;6.83;;
4500;SDS011;2263;54.654;9.410;2023-04-15T05:36:06;7.20;;;6.60;;
4500;SDS011;2263;54.654;9.410;2023-04-15T05:38:34;7.97;;;7.27;;
4500;SDS011;2263;54.654;9.410;2023-04-15T05:41:01;7.90;;;6.70;;
4500;SDS011;2263;54.654;9.410;2023-04-15T05:43:29;9.93;;;6.27;;
4500;SDS011;2263;54.654;9.410;2023-04-15T05:45:57;7.00;;;6.27;;
4500;SDS011;2263;54.654;9.410;2023-04-15T05:48:24;7.03;;;5.83;;
4500;SDS011;2263;54.654;9.410;2023-04-15T05:50:52;7.07;;;6.37;;
4500;SDS011;2263;54.654;9.410;2023-04-15T05:53:20;7.80;;;5.97;;
4500;SDS011;2263;54.654;9.410;2023-04-15T05:55:48;9.07;;;6.20;;
4500;SDS011;2263;54.654;9.410;2023-04-15T05:58:15;9.93;;;6.50;;
4500;SDS011;2263;54.654;9.410;2023-04-15T06:00:43;7.17;;;6.53;;
4500;SDS011;2263;54.654;9.410;2023-04-15T06:03:11;6.70;;;6.07;;
4500;SDS011;2263;54.654;9.410;2023-04-15T06:05:39;6.97;;;6.23;;
4500;SDS011;2263;54.654;9.410;2023-04-15T06:08:07;9.53;;;7.53;;
4500;SDS011;2263;54.654;9.410;2023-04-15T06:10:34;7.50;;;6.80;;
4500;SDS011;2263;54.654;9.410;2023-04-15T06:13:02;11.00;;;7.83;;
4500;SDS011;2263;54.654;9.410;2023-04-15T06:15:30;10.67;;;9.27;;
4500;SDS011;2263;54.654;9.410;2023-04-15T06:17:58;10.07;;;8.40;;
4500;SDS011;2263;54.654;9.410;2023-04-15T06:20:25;12.57;;;11.23;;
4500;SDS011;2263;54.654;9.410;2023-04-15T06:22:53;14.10;;;10.80;;
4500;SDS011;2263;54.654;9.410;2023-04-15T06:25:21;18.67;;;12.93;;
4500;SDS011;2263;54.654;9.410;2023-04-15T06:27:49;20.57;;;13.90;;
4500;SDS011;2263;54.654;9.410;2023-04-15T06:30:16;18.93;;;13.50;;
4500;SDS011;2263;54.654;9.410;2023-04-15T06:32:44;29.10;;;15.67;;
4500;SDS011;2263;54.654;9.410;2023-04-15T06:35:12;26.80;;;16.67;;
4500;SDS011;2263;54.654;9.410;2023-04-15T06:37:39;25.63;;;15.10;;
4500;SDS011;2263;54.654;9.410;2023-04-15T06:40:07;25.83;;;16.53;;
4500;SDS011;2263;54.654;9.410;2023-04-15T06:42:35;32.57;;;16.60;;
4500;SDS011;2263;54.654;9.410;2023-04-15T06:45:04;29.40;;;16.53;;
4500;SDS011;2263;54.654;9.410;2023-04-15T06:47:32;25.07;;;15.73;;
4500;SDS011;2263;54.654;9.410;2023-04-15T06:50:06;33.87;;;19.77;;
4500;SDS011;2263;54.654;9.410;2023-04-15T06:52:35;33.27;;;18.10;;
4500;SDS011;2263;54.654;9.410;2023-04-15T06:55:02;27.10;;;18.43;;
4500;SDS011;2263;54.654;9.410;2023-04-15T06:57:31;32.50;;;18.60;;
4500;SDS011;2263;54.654;9.410;2023-04-15T07:00:00;33.57;;;17.40;;
4500;SDS011;2263;54.654;9.410;2023-04-15T07:02:28;27.57;;;17.83;;
4500;SDS011;2263;54.654;9.410;2023-04-15T07:04:55;31.47;;;18.90;;
4500;SDS011;2263;54.654;9.410;2023-04-15T07:07:23;42.87;;;20.60;;
4500;SDS011;2263;54.654;9.410;2023-04-15T07:09:51;34.30;;;20.77;;
4500;SDS011;2263;54.654;9.410;2023-04-15T07:12:19;35.17;;;19.53;;
4500;SDS011;2263;54.654;9.410;2023-04-15T07:14:47;31.13;;;18.67;;
4500;SDS011;2263;54.654;9.410;2023-04-15T07:17:15;37.30;;;20.27;;
4500;SDS011;2263;54.654;9.410;2023-04-15T07:19:42;40.07;;;19.20;;
4500;SDS011;2263;54.654;9.410;2023-04-15T07:22:10;40.70;;;22.50;;
4500;SDS011;2263;54.654;9.410;2023-04-15T07:24:37;40.23;;;21.83;;
4500;SDS011;2263;54.654;9.410;2023-04-15T07:27:05;35.70;;;21.13;;
4500;SDS011;2263;54.654;9.410;2023-04-15T07:29:33;42.07;;;23.47;;
4500;SDS011;2263;54.654;9.410;2023-04-15T07:32:00;40.63;;;24.03;;
4500;SDS011;2263;54.654;9.410;2023-04-15T07:34:28;39.40;;;23.23;;
4500;SDS011;2263;54.654;9.410;2023-04-15T07:36:58;51.57;;;25.83;;
4500;SDS011;2263;54.654;9.410;2023-04-15T07:39:25;42.67;;;23.77;;
4500;SDS011;2263;54.654;9.410;2023-04-15T07:41:56;54.77;;;29.37;;
4500;SDS011;2263;54.654;9.410;2023-04-15T07:44:25;58.50;;;27.60;;
4500;SDS011;2263;54.654;9.410;2023-04-15T07:46:53;51.93;;;27.43;;
4500;SDS011;2263;54.654;9.410;2023-04-15T07:49:21;45.43;;;26.10;;
4500;SDS011;2263;54.654;9.410;2023-04-15T07:51:49;52.30;;;30.30;;
4500;SDS011;2263;54.654;9.410;2023-04-15T07:54:17;49.57;;;28.13;;
4500;SDS011;2263;54.654;9.410;2023-04-15T07:56:45;52.17;;;28.40;;
4500;SDS011;2263;54.654;9.410;2023-04-15T07:59:14;55.90;;;29.30;;
4500;SDS011;2263;54.654;9.410;2023-04-15T08:01:43;54.73;;;30.50;;
4500;SDS011;2263;54.654;9.410;2023-04-15T08:04:11;51.60;;;26.57;;
4500;SDS011;2263;54.654;9.410;2023-04-15T08:06:39;54.17;;;27.57;;
4500;SDS011;2263;54.654;9.410;2023-04-15T08:09:07;48.53;;;29.00;;
4500;SDS011;2263;54.654;9.410;2023-04-15T08:11:34;48.80;;;28.93;;
4500;SDS011;2263;54.654;9.410;2023-04-15T08:14:03;49.13;;;27.90;;
4500;SDS011;2263;54.654;9.410;2023-04-15T08:16:30;52.40;;;32.67;;
4500;SDS011;2263;54.654;9.410;2023-04-15T08:18:59;57.70;;;29.83;;
4500;SDS011;2263;54.654;9.410;2023-04-15T08:21:27;42.17;;;27.13;;
4500;SDS011;2263;54.654;9.410;2023-04-15T08:23:56;46.73;;;26.40;;
4500;SDS011;2263;54.654;9.410;2023-04-15T08:26:27;48.27;;;27.60;;
4500;SDS011;2263;54.654;9.410;2023-04-15T08:28:54;46.93;;;27.63;;
4500;SDS011;2263;54.654;9.410;2023-04-15T08:31:25;48.03;;;27.60;;
4500;SDS011;2263;54.654;9.410;2023-04-15T08:33:55;43.60;;;26.53;;
4500;SDS011;2263;54.654;9.410;2023-04-15T08:36:23;48.70;;;27.47;;
4500;SDS011;2263;54.654;9.410;2023-04-15T08:38:51;37.20;;;25.90;;
4500;SDS011;2263;54.654;9.410;2023-04-15T08:41:22;46.10;;;26.03;;
4500;SDS011;2263;54.654;9.410;2023-04-15T08:44:00;42.27;;;26.40;;
4500;SDS011;2263;54.654;9.410;2023-04-15T08:46:31;40.93;;;25.70;;
4500;SDS011;2263;54.654;9.410;2023-04-15T08:49:02;39.77;;;27.03;;
4500;SDS011;2263;54.654;9.410;2023-04-15T08:51:31;50.47;;;29.57;;
4500;SDS011;2263;54.654;9.410;2023-04-15T08:53:59;44.00;;;26.47;;
4500;SDS011;2263;54.654;9.410;2023-04-15T08:56:29;42.70;;;25.73;;
4500;SDS011;2263;54.654;9.410;2023-04-15T08:59:00;40.53;;;25.23;;
4500;SDS011;2263;54.654;9.410;2023-04-15T09:01:30;43.87;;;26.10;;
4500;SDS011;2263;54.654;9.410;2023-04-15T09:03:59;38.17;;;24.00;;
4500;SDS011;2263;54.654;9.410;2023-04-15T09:06:29;46.23;;;25.10;;
4500;SDS011;2263;54.654;9.410;2023-04-15T09:08:57;43.03;;;25.17;;
4500;SDS011;2263;54.654;9.410;2023-04-15T09:11:24;36.27;;;24.83;;
4500;SDS011;2263;54.654;9.410;2023-04-15T09:13:52;38.43;;;23.50;;
4500;SDS011;2263;54.654;9.410;2023-04-15T09:16:20;41.73;;;25.63;;
4500;SDS011;2263;54.654;9.410;2023-04-15T09:18:47;35.70;;;24.07;;
4500;SDS011;2263;54.654;9.410;2023-04-15T09:21:16;35.50;;;24.13;;
4500;SDS011;2263;54.654;9.410;2023-04-15T09:23:58;42.90;;;24.63;;
4500;SDS011;2263;54.654;9.410;2023-04-15T09:26:34;37.67;;;25.47;;
4500;SDS011;2263;54.654;9.410;2023-04-15T09:29:06;35.07;;;23.07;;
4500;SDS011;2263;54.654;9.410;2023-04-15T09:31:35;32.17;;;22.63;;
4500;SDS011;2263;54.654;9.410;2023-04-15T09:34:03;42.10;;;25.83;;
4500;SDS011;2263;54.654;9.410;2023-04-15T09:39:17;39.30;;;22.30;;
4500;SDS011;2263;54.654;9.410;2023-04-15T09:41:45;36.93;;;22.00;;
4500;SDS011;2263;54.654;9.410;2023-04-15T09:44:22;33.77;;;21.50;;
4500;SDS011;2263;54.654;9.410;2023-04-15T09:46:51;33.40;;;23.20;;
4500;SDS011;2263;54.654;9.410;2023-04-15T09:49:19;29.70;;;21.40;;
4500;SDS011;2263;54.654;9.410;2023-04-15T09:51:47;32.50;;;21.43;;
4500;SDS011;2263;54.654;9.410;2023-04-15T09:54:37;30.30;;;20.93;;
4500;SDS011;2263;54.654;9.410;2023-04-15T09:57:07;29.83;;;22.77;;
4500;SDS011;2263;54.654;9.410;2023-04-15T09:59:38;32.07;;;22.67;;
4500;SDS011;2263;54.654;9.410;2023-04-15T10:02:06;35.93;;;24.23;;
4500;SDS011;2263;54.654;9.410;2023-04-15T10:04:35;31.70;;;23.40;;
4500;SDS011;2263;54.654;9.410;2023-04-15T10:07:06;29.97;;;21.43;;
4500;SDS011;2263;54.654;9.410;2023-04-15T10:09:35;29.03;;;20.47;;
4500;SDS011;2263;54.654;9.410;2023-04-15T10:12:07;35.30;;;23.67;;
4500;SDS011;2263;54.654;9.410;2023-04-15T10:14:35;30.63;;;21.80;;
4500;SDS011;2263;54.654;9.410;2023-04-15T10:17:04;31.70;;;20.67;;
4500;SDS011;2263;54.654;9.410;2023-04-15T10:19:35;31.60;;;20.90;;
4500;SDS011;2263;54.654;9.410;2023-04-15T10:22:05;31.47;;;22.77;;
4500;SDS011;2263;54.654;9.410;2023-04-15T10:24:33;29.60;;;21.20;;
4500;SDS011;2263;54.654;9.410;2023-04-15T10:27:02;29.13;;;22.73;;
4500;SDS011;2263;54.654;9.410;2023-04-15T10:29:31;32.10;;;20.80;;
4500;SDS011;2263;54.654;9.410;2023-04-15T10:31:58;27.47;;;20.17;;
4500;SDS011;2263;54.654;9.410;2023-04-15T10:34:33;27.90;;;20.00;;
4500;SDS011;2263;54.654;9.410;2023-04-15T10:37:01;27.30;;;20.93;;
4500;SDS011;2263;54.654;9.410;2023-04-15T10:42:14;22.40;;;19.30;;
4500;SDS011;2263;54.654;9.410;2023-04-15T10:44:43;26.33;;;19.10;;
4500;SDS011;2263;54.654;9.410;2023-04-15T10:47:18;32.20;;;20.60;;
4500;SDS011;2263;54.654;9.410;2023-04-15T10:49:48;25.33;;;20.13;;
4500;SDS011;2263;54.654;9.410;2023-04-15T10:52:23;26.00;;;19.80;;
4500;SDS011;2263;54.654;9.410;2023-04-15T10:55:03;28.93;;;19.73;;
4500;SDS011;2263;54.654;9.410;2023-04-15T10:57:44;26.27;;;19.13;;
4500;SDS011;2263;54.654;9.410;2023-04-15T11:00:15;22.90;;;17.67;;
4500;SDS011;2263;54.654;9.410;2023-04-15T11:02:54;27.43;;;20.20;;
4500;SDS011;2263;54.654;9.410;2023-04-15T11:08:11;23.90;;;19.43;;
4500;SDS011;2263;54.654;9.410;2023-04-15T11:15:38;31.70;;;22.33;;
4500;SDS011;2263;54.654;9.410;2023-04-15T11:20:54;26.83;;;21.17;;
4500;SDS011;2263;54.654;9.410;2023-04-15T11:23:33;29.60;;;20.43;;
4500;SDS011;2263;54.654;9.410;2023-04-15T11:26:12;35.50;;;21.43;;
4500;SDS011;2263;54.654;9.410;2023-04-15T11:28:42;27.97;;;19.93;;
4500;SDS011;2263;54.654;9.410;2023-04-15T11:31:12;24.00;;;19.80;;
4500;SDS011;2263;54.654;9.410;2023-04-15T11:36:22;29.60;;;21.67;;
4500;SDS011;2263;54.654;9.410;2023-04-15T11:38:53;29.63;;;21.70;;
4500;SDS011;2263;54.654;9.410;2023-04-15T11:41:22;27.40;;;21.50;;
4500;SDS011;2263;54.654;9.410;2023-04-15T11:43:50;24.77;;;19.60;;
4500;SDS011;2263;54.654;9.410;2023-04-15T11:46:19;27.30;;;20.97;;
4500;SDS011;2263;54.654;9.410;2023-04-15T11:48:48;30.60;;;22.80;;
4500;SDS011;2263;54.654;9.410;2023-04-15T11:51:16;29.90;;;23.03;;
4500;SDS011;2263;54.654;9.410;2023-04-15T11:56:16;24.60;;;20.17;;
4500;SDS011;2263;54.654;9.410;2023-04-15T11:58:55;26.97;;;19.93;;
4500;SDS011;2263;54.654;9.410;2023-04-15T12:03:59;27.40;;;19.50;;
4500;SDS011;2263;54.654;9.410;2023-04-15T12:06:32;31.03;;;21.23;;
4500;SDS011;2263;54.654;9.410;2023-04-15T12:11:44;30.30;;;24.03;;
4500;SDS011;2263;54.654;9.410;2023-04-15T12:14:20;26.87;;;20.10;;
4500;SDS011;2263;54.654;9.410;2023-04-15T12:16:52;26.40;;;21.60;;
4500;SDS011;2263;54.654;9.410;2023-04-15T12:19:27;27.50;;;21.33;;
4500;SDS011;2263;54.654;9.410;2023-04-15T12:22:00;27.57;;;20.23;;
4500;SDS011;2263;54.654;9.410;2023-04-15T12:24:30;26.93;;;22.53;;
4500;SDS011;2263;54.654;9.410;2023-04-15T12:27:05;24.90;;;19.33;;
4500;SDS011;2263;54.654;9.410;2023-04-15T12:29:35;23.77;;;19.33;;
4500;SDS011;2263;54.654;9.410;2023-04-15T12:34:40;24.87;;;18.77;;
4500;SDS011;2263;54.654;9.410;2023-04-15T12:37:09;22.60;;;17.90;;
4500;SDS011;2263;54.654;9.410;2023-04-15T12:39:40;27.60;;;19.80;;
4500;SDS011;2263;54.654;9.410;2023-04-15T12:42:09;25.30;;;20.37;;
4500;SDS011;2263;54.654;9.410;2023-04-15T12:44:37;25.07;;;19.33;;
4500;SDS011;2263;54.654;9.410;2023-04-15T12:47:08;29.53;;;18.97;;
4500;SDS011;2263;54.654;9.410;2023-04-15T12:49:39;21.60;;;17.67;;
4500;SDS011;2263;54.654;9.410;2023-04-15T12:52:07;21.30;;;17.00;;
4500;SDS011;2263;54.654;9.410;2023-04-15T12:54:35;24.13;;;17.97;;
4500;SDS011;2263;54.654;9.410;2023-04-15T12:57:02;23.93;;;18.27;;
4500;SDS011;2263;54.654;9.410;2023-04-15T12:59:33;23.60;;;18.53;;
4500;SDS011;2263;54.654;9.410;2023-04-15T13:02:02;22.87;;;18.43;;
4500;SDS011;2263;54.654;9.410;2023-04-15T13:04:30;21.83;;;18.70;;
4500;SDS011;2263;54.654;9.410;2023-04-15T13:06:58;23.13;;;18.30;;
4500;SDS011;2263;54.654;9.410;2023-04-15T13:09:27;27.33;;;20.13;;
4500;SDS011;2263;54.654;9.410;2023-04-15T13:11:54;23.30;;;18.00;;
4500;SDS011;2263;54.654;9.410;2023-04-15T13:14:23;24.90;;;20.13;;
4500;SDS011;2263;54.654;9.410;2023-04-15T13:16:50;28.83;;;19.17;;
4500;SDS011;2263;54.654;9.410;2023-04-15T13:19:19;22.40;;;19.00;;
4500;SDS011;2263;54.654;9.410;2023-04-15T13:21:47;21.30;;;18.03;;
4500;SDS011;2263;54.654;9.410;2023-04-15T13:24:14;26.10;;;17.40;;
4500;SDS011;2263;54.654;9.410;2023-04-15T13:26:42;22.97;;;17.67;;
4500;SDS011;2263;54.654;9.410;2023-04-15T13:29:09;25.43;;;18.63;;
4500;SDS011;2263;54.654;9.410;2023-04-15T13:31:38;21.30;;;17.57;;
4500;SDS011;2263;54.654;9.410;2023-04-15T13:34:05;23.60;;;18.60;;
4500;SDS011;2263;54.654;9.410;2023-04-15T13:36:33;21.77;;;17.73;;
4500;SDS011;2263;54.654;9.410;2023-04-15T13:39:01;24.50;;;19.40;;
4500;SDS011;2263;54.654;9.410;2023-04-15T13:41:29;21.60;;;18.70;;
4500;SDS011;2263;54.654;9.410;2023-04-15T13:43:56;25.60;;;18.30;;
4500;SDS011;2263;54.654;9.410;2023-04-15T13:46:24;21.37;;;16.70;;
4500;SDS011;2263;54.654;9.410;2023-04-15T13:48:52;22.40;;;17.97;;
4500;SDS011;2263;54.654;9.410;2023-04-15T13:51:19;19.90;;;16.13;;
4500;SDS011;2263;54.654;9.410;2023-04-15T13:53:47;19.73;;;16.13;;
4500;SDS011;2263;54.654;9.410;2023-04-15T13:56:15;16.27;;;14.57;;
4500;SDS011;2263;54.654;9.410;2023-04-15T13:58:42;20.43;;;16.90;;
4500;SDS011;2263;54.654;9.410;2023-04-15T14:01:10;18.13;;;16.03;;
4500;SDS011;2263;54.654;9.410;2023-04-15T14:03:37;21.63;;;17.50;;
4500;SDS011;2263;54.654;9.410;2023-04-15T14:06:05;20.07;;;16.33;;
4500;SDS011;2263;54.654;9.410;2023-04-15T14:08:33;21.47;;;16.43;;
4500;SDS011;2263;54.654;9.410;2023-04-15T14:11:01;24.23;;;16.90;;
4500;SDS011;2263;54.654;9.410;2023-04-15T14:13:28;21.53;;;15.43;;
4500;SDS011;2263;54.654;9.410;2023-04-15T14:15:56;18.43;;;16.47;;
4500;SDS011;2263;54.654;9.410;2023-04-15T14:18:24;21.60;;;18.70;;
4500;SDS011;2263;54.654;9.410;2023-04-15T14:20:52;20.93;;;17.07;;
4500;SDS011;2263;54.654;9.410;2023-04-15T14:23:20;21.27;;;16.20;;
4500;SDS011;2263;54.654;9.410;2023-04-15T14:25:49;20.57;;;16.13;;
4500;SDS011;2263;54.654;9.410;2023-04-15T14:28:17;19.13;;;16.10;;
4500;SDS011;2263;54.654;9.410;2023-04-15T14:30:45;22.73;;;16.00;;
4500;SDS011;2263;54.654;9.410;2023-04-15T14:33:12;18.80;;;16.83;;
4500;SDS011;2263;54.654;9.410;2023-04-15T14:35:40;20.20;;;15.50;;
4500;SDS011;2263;54.654;9.410;2023-04-15T14:38:07;18.23;;;16.23;;
4500;SDS011;2263;54.654;9.410;2023-04-15T14:40:37;20.93;;;17.20;;
4500;SDS011;2263;54.654;9.410;2023-04-15T14:43:05;17.90;;;16.00;;
4500;SDS011;2263;54.654;9.410;2023-04-15T14:45:33;22.23;;;15.87;;
4500;SDS011;2263;54.654;9.410;2023-04-15T14:48:02;19.80;;;15.37;;
4500;SDS011;2263;54.654;9.410;2023-04-15T14:50:30;16.13;;;14.23;;
4500;SDS011;2263;54.654;9.410;2023-04-15T14:52:57;18.77;;;15.20;;
4500;SDS011;2263;54.654;9.410;2023-04-15T14:55:26;15.90;;;14.30;;
4500;SDS011;2263;54.654;9.410;2023-04-15T14:57:55;15.00;;;13.40;;
4500;SDS011;2263;54.654;9.410;2023-04-15T15:00:22;16.57;;;14.87;;
4500;SDS011;2263;54.654;9.410;2023-04-15T15:02:50;20.40;;;13.63;;
4500;SDS011;2263;54.654;9.410;2023-04-15T15:05:20;21.73;;;14.30;;
4500;SDS011;2263;54.654;9.410;2023-04-15T15:07:48;15.50;;;13.87;;
4500;SDS011;2263;54.654;9.410;2023-04-15T15:10:16;18.87;;;13.60;;
4500;SDS011;2263;54.654;9.410;2023-04-15T15:13:04;14.50;;;13.00;;
4500;SDS011;2263;54.654;9.410;2023-04-15T15:15:33;15.87;;;14.27;;
4500;SDS011;2263;54.654;9.410;2023-04-15T15:18:02;17.10;;;13.67;;
4500;SDS011;2263;54.654;9.410;2023-04-15T15:20:30;13.63;;;12.37;;
4500;SDS011;2263;54.654;9.410;2023-04-15T15:22:59;17.20;;;15.00;;
4500;SDS011;2263;54.654;9.410;2023-04-15T15:25:27;14.83;;;13.37;;
4500;SDS011;2263;54.654;9.410;2023-04-15T15:27:55;14.10;;;12.60;;
4500;SDS011;2263;54.654;9.410;2023-04-15T15:30:23;14.90;;;13.00;;
4500;SDS011;2263;54.654;9.410;2023-04-15T15:32:51;13.87;;;11.93;;
4500;SDS011;2263;54.654;9.410;2023-04-15T15:35:18;13.23;;;11.97;;
4500;SDS011;2263;54.654;9.410;2023-04-15T15:37:48;13.83;;;12.07;;